Address 0xe878570275b912e30da84984288f321c9f2cb779 1

Overview

Balance:
0.00042 GLMR

GLMR Value:
Less Than $0.01 (@ $0.50/GLMR)

Token:
Txn Hash Method
Block
From
To
Value [Txn Fee]
0xbfa150296cdc4460935b1096ad28ee23bcc2109694bcbb43013684e89dc15380Transfer20060492022-10-04 11:38:001 day 22 hrs ago0xe878570275b912e30da84984288f321c9f2cb779OUT0xc971f4d272a11566b73320e9538c94f8ee967e027.440806100661517 GLMR0.0021315
0x3aa3a34e916f051cc8fb9d11ef95694fc9fb19389448911b6ef9bce0253c9ef8Swap Exact Token...19835072022-10-01 7:03:545 days 2 hrs ago0xe878570275b912e30da84984288f321c9f2cb779OUT StellaSwap: Router v2.10 GLMR0.011336535
0x5c0fff8ad3a6c17d84fbef7aaff9aa9a5c7532b2babd13690e5d17fec4af958aRemove Liquidity...19835022022-10-01 7:02:545 days 2 hrs ago0xe878570275b912e30da84984288f321c9f2cb779OUT StellaSwap: Router v2.10 GLMR0.01927688
0xb9628afcfd29857eb556d6d828a12fc5f98d054a478ddfcf3a292011f0c5ee9aWithdraw19834972022-10-01 7:01:545 days 2 hrs ago0xe878570275b912e30da84984288f321c9f2cb779OUT 0xf3a5454496e26ac57da879bf3285fa85debf03880 GLMR0.019922826
0x4c20d504dd4995ce9df5fbf2d29976ab4d1d9183f7a7d6763369f1d096a4634aDeposit19834942022-10-01 7:01:185 days 2 hrs ago0xe878570275b912e30da84984288f321c9f2cb779OUT 0xf3a5454496e26ac57da879bf3285fa85debf03880 GLMR0.021456694
0x72d1267bd3ba1e955531fe08e078ad5eb0af001c049ce7d369d3b735106fc90cDeposit18594432022-09-13 14:24:0022 days 19 hrs ago0xe878570275b912e30da84984288f321c9f2cb779OUT 0xf3a5454496e26ac57da879bf3285fa85debf03880 GLMR0.015112944
0x7f1544ee7eaac6accf7d11f69b460ce5dc3a8154192b97569337cf1649f06715Deposit18594422022-09-13 14:23:4822 days 19 hrs ago0xe878570275b912e30da84984288f321c9f2cb779OUT 0xf3a5454496e26ac57da879bf3285fa85debf03880 GLMR0.021538909
0x503ee58d62e5b8cb6858632edf0dad26761791aa214e3d84cca34bd870a0a945Add Liquidity ET...18594382022-09-13 14:23:0022 days 19 hrs ago0xe878570275b912e30da84984288f321c9f2cb779OUT StellaSwap: Router v2.11 GLMR0.0174481545
0xeb3a0084b1a21e545a91df77017978f1503eed8890e7462c9318e2a7b23cfd30Transfer*18594232022-09-13 14:19:4822 days 19 hrs ago0xe878570275b912e30da84984288f321c9f2cb779OUTMoonbeam: Xtokens0 GLMR0.004435144
0x9d884ef54ed361d7d75c71af5a74ffe52e53ae21f7d6e0497f018c69b0d674fcDeposit18593982022-09-13 14:14:4822 days 19 hrs ago0xe878570275b912e30da84984288f321c9f2cb779OUT 0xf3a5454496e26ac57da879bf3285fa85debf03880 GLMR0.021443093
0x366b4eb6547aef8626dbd8469377da5af557e5dc73d07dd7498ad1acd4eedc2cApprove18575742022-09-13 7:58:3623 days 1 hr ago0xe878570275b912e30da84984288f321c9f2cb779OUT Moonbeam: WGLMR Token0 GLMR0.004705946
0x4b1a04bba61b559da25301ee6b3909076300c19f9e9c445b12a9aa48d11a3268Deposit16311812022-08-11 17:17:1855 days 16 hrs ago0xe878570275b912e30da84984288f321c9f2cb779OUT 0xf3a5454496e26ac57da879bf3285fa85debf03880 GLMR0.023557541
0x13fb0ab8a5044da17e639ddc74b6668812943451d6b2ceeb6070c63c74e2e281Add Liquidity ET...16311782022-08-11 17:16:4255 days 16 hrs ago0xe878570275b912e30da84984288f321c9f2cb779OUT StellaSwap: Router v2.10.32777028281212 GLMR0.0159936595
0xde91746987bb7355b98ab0ff53e3963b029bc7d52649d205714e8dc9d7486936Swap Exact Token...16310982022-08-11 17:00:2455 days 16 hrs ago0xe878570275b912e30da84984288f321c9f2cb779OUT StellaSwap: Router v2.10 GLMR0.0152512885
0xab32ba38f259917a9447464a80f21aab03ed5232956de2ffc2613faf58635bf9Deposit16304502022-08-11 14:47:1855 days 18 hrs ago0xe878570275b912e30da84984288f321c9f2cb779OUT 0xf3a5454496e26ac57da879bf3285fa85debf03880 GLMR0.021538909
0x30ba66cc812b0900d24f42837df2d7fde9c9059dc604af11138c4585041e5c5cAdd Liquidity ET...16304472022-08-11 14:46:4255 days 18 hrs ago0xe878570275b912e30da84984288f321c9f2cb779OUT StellaSwap: Router v2.14.390910807345605 GLMR0.0159936595
0x737c666b8b22ef15b4596fc81c83d43622fa59aa89476acd36b667a0805fc420Deposit16304432022-08-11 14:45:5455 days 18 hrs ago0xe878570275b912e30da84984288f321c9f2cb779OUT 0xf3a5454496e26ac57da879bf3285fa85debf03880 GLMR0.0274562575
0x2e70ad16f06f8b6ac468a3609f4bf3b7bd8c15c4e6b2f0daeb95af1f494c534eAdd Liquidity ET...16304382022-08-11 14:44:5455 days 18 hrs ago0xe878570275b912e30da84984288f321c9f2cb779OUT StellaSwap: Router v2.13 GLMR0.0174481545
0x46eef18b699266dabc9bcbab1d3da506058a21c29a9823e110666102c2691b7fRemove Liquidity...16304252022-08-11 14:42:1855 days 19 hrs ago0xe878570275b912e30da84984288f321c9f2cb779OUT StellaSwap: Router v2.10 GLMR0.0192550575
0xd3f2a35448f42b3b43f5840dbc24075962969038cdf1cf2c9fe546ec998abe7eSwap Exact Token...16304232022-08-11 14:41:5455 days 19 hrs ago0xe878570275b912e30da84984288f321c9f2cb779OUT StellaSwap: Router v2.10 GLMR0.012836908
0xdfb8717da58a2a84545d2d099ba69389d99454f26bf90e018f7930cd95cdbc48Approve16303872022-08-11 14:34:4255 days 19 hrs ago0xe878570275b912e30da84984288f321c9f2cb779OUT StellaSwap: STELLA Token0 GLMR0.0047969915
0x572b647f89f451f0c11520d4d2bfd049a221fb31fc98363f473b9d78ac7c34d1Approve16303522022-08-11 14:27:3655 days 19 hrs ago0xe878570275b912e30da84984288f321c9f2cb779OUT 0xd3dfb90f7996a97f9f394e130342485e37dd28f70 GLMR0.002701321
0x1f4428427d7d9e381b3b834469052ae8e10eb7bf03537478781ecf12ab2d6798Approve16303522022-08-11 14:27:3655 days 19 hrs ago0xe878570275b912e30da84984288f321c9f2cb779OUT 0xd3dfb90f7996a97f9f394e130342485e37dd28f70 GLMR0.004721171
0x934affa754b07171347a0b0fcdb5bc948858125dd50c58ad569de8e70e8eaed0Approve16303332022-08-11 14:23:3655 days 19 hrs ago0xe878570275b912e30da84984288f321c9f2cb779OUT 0xd3dfb90f7996a97f9f394e130342485e37dd28f70 GLMR0.004721171
0x6bc4867c39f6b2e721440d9e5cf4c7e71210af20462f919a686115ad3ec9549eSwap Exact ETH F...16244112022-08-10 17:57:3656 days 15 hrs ago0xe878570275b912e30da84984288f321c9f2cb779OUT StellaSwap: Router v2.10.344246220114464 GLMR0.0122509485
[ Download CSV Export 
Latest 9 internal transactions
Parent Txn Hash Block From To Value
0x3aa3a34e916f051cc8fb9d11ef95694fc9fb19389448911b6ef9bce0253c9ef819835072022-10-01 7:03:545 days 2 hrs ago StellaSwap: Router v2.10xe878570275b912e30da84984288f321c9f2cb7790.408250120295528285 GLMR
0x5c0fff8ad3a6c17d84fbef7aaff9aa9a5c7532b2babd13690e5d17fec4af958a19835022022-10-01 7:02:545 days 2 hrs ago StellaSwap: Router v2.10xe878570275b912e30da84984288f321c9f2cb7796.342149768334586928 GLMR
0x503ee58d62e5b8cb6858632edf0dad26761791aa214e3d84cca34bd870a0a94518594382022-09-13 14:23:0022 days 19 hrs ago StellaSwap: Router v2.10xe878570275b912e30da84984288f321c9f2cb7790.000000000008363487 GLMR
0x2e70ad16f06f8b6ac468a3609f4bf3b7bd8c15c4e6b2f0daeb95af1f494c534e16304382022-08-11 14:44:5455 days 18 hrs ago StellaSwap: Router v2.10xe878570275b912e30da84984288f321c9f2cb7790.000000000011923286 GLMR
0x46eef18b699266dabc9bcbab1d3da506058a21c29a9823e110666102c2691b7f16304252022-08-11 14:42:1855 days 19 hrs ago StellaSwap: Router v2.10xe878570275b912e30da84984288f321c9f2cb7797.15548295635610499 GLMR
0xd3f2a35448f42b3b43f5840dbc24075962969038cdf1cf2c9fe546ec998abe7e16304232022-08-11 14:41:5455 days 19 hrs ago StellaSwap: Router v2.10xe878570275b912e30da84984288f321c9f2cb7792.309177607415754992 GLMR
0x6df115732bd262173a936fe25d847b0878efa77d97d477487382d9a576ee2cb316243692022-08-10 17:49:1256 days 15 hrs ago StellaSwap: Router v2.10xe878570275b912e30da84984288f321c9f2cb7790.000000000011446494 GLMR
0x8445ae4c64d4fd31c403fd8eadd51aba452f2e97533a80d9f9114c97bd39960016242792022-08-10 17:30:1856 days 16 hrs ago StellaSwap: Router v2.10xe878570275b912e30da84984288f321c9f2cb7790.000000000007711782 GLMR
0x9e64440f7751d96cd7feff78c23596d66820e8e080d8484f8d5b1ed6f0fa7a3016241892022-08-10 17:12:0056 days 16 hrs ago StellaSwap: Router v2.10xe878570275b912e30da84984288f321c9f2cb7790.000000000014616204 GLMR
[ Download CSV Export 
Loading

Contract Name:
0

Compiler Version
0

Optimization Enabled:
0

Other Settings:
-NA-
Block Transaction Gas Used Reward
Age Block Fee Address BC Fee Address Voting Power Jailed Incoming
Block Uncle Number Difficulty Gas Used Reward
Loading
Make sure to use the "Vote Down" button for any spammy posts, and the "Vote Up" for interesting conversations.